createdAt,value
2023-03-25T03:00:59.022Z,8.41
2023-03-25T03:03:28.558Z,8.40
2023-03-25T03:06:03.849Z,8.39
2023-03-25T03:08:57.688Z,8.43
2023-03-25T03:11:34.241Z,8.43
2023-03-25T03:14:25.512Z,8.39
2023-03-25T03:17:03.972Z,8.34
2023-03-25T03:19:38.573Z,8.31
2023-03-25T03:22:15.120Z,8.29
2023-03-25T03:24:53.983Z,8.28
2023-03-25T03:27:24.592Z,8.29
2023-03-25T03:29:57.053Z,8.30
2023-03-25T03:32:33.160Z,8.27
2023-03-25T03:35:05.875Z,8.22
2023-03-25T03:37:37.944Z,8.20
2023-03-25T03:40:09.012Z,8.22
2023-03-25T03:42:56.725Z,8.23
2023-03-25T03:45:39.934Z,8.21
2023-03-25T03:48:16.563Z,8.22
2023-03-25T03:50:53.087Z,8.22
2023-03-25T03:53:22.074Z,8.18
2023-03-25T03:55:53.984Z,8.16
2023-03-25T03:58:28.958Z,8.15
2023-03-25T04:01:00.742Z,8.17
2023-03-25T04:03:40.737Z,8.16
2023-03-25T04:06:22.795Z,8.17
2023-03-25T04:08:52.250Z,8.17
2023-03-25T04:11:24.006Z,8.17
2023-03-25T04:13:54.594Z,8.21
2023-03-25T04:16:25.383Z,8.18
2023-03-25T04:18:55.580Z,8.14
2023-03-25T04:21:25.818Z,8.16
2023-03-25T04:23:54.717Z,8.12
2023-03-25T04:26:23.836Z,8.11
2023-03-25T04:28:52.713Z,8.09
2023-03-25T04:31:22.550Z,8.07
2023-03-25T04:33:51.502Z,8.03
2023-03-25T04:36:20.898Z,8.02
2023-03-25T04:38:49.999Z,8.03
2023-03-25T04:41:18.843Z,8.01
2023-03-25T04:43:47.965Z,8.01
2023-03-25T04:46:18.253Z,8.00
2023-03-25T04:48:48.019Z,8.02
2023-03-25T04:51:16.303Z,8.04
2023-03-25T04:53:45.055Z,8.07
2023-03-25T04:56:16.628Z,8.10
2023-03-25T04:58:48.084Z,8.13
2023-03-25T05:01:21.448Z,8.14
2023-03-25T05:03:50.673Z,8.18
2023-03-25T05:06:19.841Z,8.19
2023-03-25T05:08:48.102Z,8.21
2023-03-25T05:11:16.937Z,8.23
2023-03-25T05:13:45.568Z,8.25
2023-03-25T05:16:14.064Z,8.26
2023-03-25T05:18:43.064Z,8.31
2023-03-25T05:21:13.434Z,8.36
2023-03-25T05:24:08.118Z,8.45
2023-03-25T05:27:10.552Z,8.52
2023-03-25T05:29:40.001Z,8.57
2023-03-25T05:32:08.226Z,8.60
2023-03-25T05:34:36.707Z,8.60
2023-03-25T05:37:06.159Z,8.61
2023-03-25T05:39:35.153Z,8.64
2023-03-25T05:42:04.229Z,8.67
2023-03-25T05:44:32.729Z,8.67
2023-03-25T05:47:01.892Z,8.70
2023-03-25T05:49:30.988Z,8.79
2023-03-25T05:52:00.677Z,8.86
2023-03-25T05:54:30.119Z,8.92
2023-03-25T05:56:58.956Z,8.97
2023-03-25T05:59:27.974Z,9.04
2023-03-25T06:01:57.420Z,9.13
2023-03-25T06:04:26.657Z,9.23
2023-03-25T06:06:55.937Z,9.31
2023-03-25T06:09:24.929Z,9.33
2023-03-25T06:11:54.343Z,9.37
2023-03-25T06:14:26.176Z,9.40
2023-03-25T06:16:57.337Z,9.52
2023-03-25T06:19:27.145Z,9.63
2023-03-25T06:21:56.731Z,9.71
2023-03-25T06:24:25.567Z,9.78
2023-03-25T06:26:54.599Z,9.86
2023-03-25T06:29:23.515Z,9.98
2023-03-25T06:31:53.085Z,10.13
2023-03-25T06:34:23.657Z,10.27
2023-03-25T06:36:54.696Z,10.37
2023-03-25T06:39:23.299Z,10.43
2023-03-25T06:41:52.422Z,10.48
2023-03-25T06:44:31.183Z,10.57
2023-03-25T06:47:19.346Z,10.64
2023-03-25T06:49:51.378Z,10.68
2023-03-25T06:52:20.431Z,10.69
2023-03-25T06:54:49.044Z,10.68
2023-03-25T06:57:17.835Z,10.66
2023-03-25T06:59:47.697Z,10.69
2023-03-25T07:02:16.839Z,10.69
2023-03-25T07:04:45.910Z,10.71
2023-03-25T07:07:14.855Z,10.76
2023-03-25T07:09:43.938Z,10.85
2023-03-25T07:12:12.981Z,10.93
2023-03-25T07:14:42.121Z,10.99
2023-03-25T07:17:10.800Z,11.07
2023-03-25T07:19:39.962Z,11.13
2023-03-25T07:22:08.860Z,11.18
2023-03-25T07:24:37.839Z,11.31
2023-03-25T07:27:06.599Z,11.42
2023-03-25T07:29:36.989Z,11.50
2023-03-25T07:32:06.335Z,11.55
2023-03-25T07:34:36.540Z,11.63
2023-03-25T07:37:05.443Z,11.69
2023-03-25T07:39:34.766Z,11.73
2023-03-25T07:42:03.579Z,11.76
2023-03-25T07:45:01.744Z,11.80
2023-03-25T07:47:31.547Z,11.84
2023-03-25T07:49:59.858Z,11.87
2023-03-25T07:52:28.465Z,11.94
2023-03-25T07:54:57.565Z,11.99
2023-03-25T07:57:26.854Z,12.07
2023-03-25T07:59:55.956Z,12.13
2023-03-25T08:02:25.147Z,12.27
2023-03-25T08:04:55.662Z,12.44
2023-03-25T08:07:24.713Z,12.66
2023-03-25T08:09:53.762Z,12.89
2023-03-25T08:12:22.929Z,13.12
2023-03-25T08:14:51.853Z,13.28
2023-03-25T08:17:20.971Z,13.38
2023-03-25T08:19:52.677Z,13.47
2023-03-25T08:22:21.952Z,13.54
2023-03-25T08:24:50.691Z,13.57
2023-03-25T08:27:20.122Z,13.64
2023-03-25T08:29:56.596Z,13.71
2023-03-25T08:32:26.904Z,13.85
2023-03-25T08:34:56.063Z,14.01
2023-03-25T08:37:26.293Z,14.13
2023-03-25T08:39:56.643Z,14.28
2023-03-25T08:42:25.822Z,14.39
2023-03-25T08:44:54.950Z,14.51
2023-03-25T08:47:24.040Z,14.57
2023-03-25T08:49:53.137Z,14.59
2023-03-25T08:52:23.421Z,14.58
2023-03-25T08:54:52.552Z,14.59
2023-03-25T08:57:21.782Z,14.63
2023-03-25T08:59:50.785Z,14.68
2023-03-25T09:02:19.733Z,14.70
2023-03-25T09:04:49.376Z,14.68
2023-03-25T09:07:20.420Z,14.67
2023-03-25T09:09:49.427Z,14.63
2023-03-25T09:12:18.652Z,14.58
2023-03-25T09:14:47.917Z,14.52
2023-03-25T09:17:16.764Z,14.46
2023-03-25T09:19:45.780Z,14.42
2023-03-25T09:22:15.592Z,14.39
2023-03-25T09:24:44.632Z,14.38
2023-03-25T09:27:13.569Z,14.37
2023-03-25T09:29:42.877Z,14.35
2023-03-25T09:32:11.957Z,14.33
2023-03-25T09:34:40.849Z,14.33
2023-03-25T09:37:09.944Z,14.33
2023-03-25T09:39:38.928Z,14.26
2023-03-25T09:42:30.081Z,14.21
2023-03-25T09:45:12.389Z,14.20
2023-03-25T09:47:53.785Z,14.15
2023-03-25T09:50:23.190Z,14.14
2023-03-25T09:52:51.923Z,14.15
2023-03-25T09:55:25.911Z,14.17
2023-03-25T09:58:15.483Z,14.13
2023-03-25T10:00:45.955Z,14.15
2023-03-25T10:03:18.581Z,14.21
2023-03-25T10:05:47.714Z,14.24
2023-03-25T10:08:26.941Z,14.32
2023-03-25T10:11:14.829Z,14.39
2023-03-25T10:13:58.780Z,14.42
2023-03-25T10:16:27.904Z,14.41
2023-03-25T10:19:16.241Z,14.37
2023-03-25T10:21:50.432Z,14.32
2023-03-25T10:24:24.393Z,14.29
2023-03-25T10:27:05.965Z,14.31
2023-03-25T10:29:42.919Z,14.34
2023-03-25T10:32:19.001Z,14.43
2023-03-25T10:34:50.568Z,14.50
2023-03-25T10:37:40.345Z,14.60
2023-03-25T10:40:27.737Z,14.66
2023-03-25T10:43:06.508Z,14.70
2023-03-25T10:45:39.747Z,14.75
2023-03-25T10:48:21.116Z,14.81
2023-03-25T10:50:51.342Z,14.81
2023-03-25T10:53:27.660Z,14.82
2023-03-25T10:56:17.973Z,14.80
2023-03-25T10:58:49.301Z,14.68
2023-03-25T11:01:33.400Z,14.58
2023-03-25T11:04:04.492Z,14.57
2023-03-25T11:06:46.506Z,14.62
2023-03-25T11:09:32.914Z,14.73
2023-03-25T11:12:02.736Z,14.81
2023-03-25T11:14:31.633Z,14.84
2023-03-25T11:17:03.746Z,14.92
2023-03-25T11:19:39.627Z,15.00
2023-03-25T11:22:13.612Z,15.05
2023-03-25T11:24:48.866Z,15.08
2023-03-25T11:27:20.903Z,15.03
2023-03-25T11:30:10.477Z,14.91
2023-03-25T11:32:40.284Z,14.94
2023-03-25T11:35:19.857Z,15.04
2023-03-25T11:37:54.700Z,15.10
2023-03-25T11:40:27.094Z,15.18
2023-03-25T11:43:00.591Z,15.25
2023-03-25T11:45:39.556Z,15.29
2023-03-25T11:48:19.106Z,15.26
2023-03-25T11:50:56.433Z,15.16
2023-03-25T11:53:29.733Z,15.03
2023-03-25T11:56:05.450Z,14.92
2023-03-25T11:58:36.668Z,14.85
2023-03-25T12:01:07.185Z,14.84
2023-03-25T12:03:36.236Z,14.88
2023-03-25T12:06:07.131Z,14.94
2023-03-25T12:08:49.609Z,14.98
2023-03-25T12:11:22.221Z,15.03
2023-03-25T12:14:20.025Z,15.07
2023-03-25T12:17:04.234Z,15.04
2023-03-25T12:19:39.365Z,14.96
2023-03-25T12:22:24.387Z,14.92
2023-03-25T12:25:12.016Z,14.85
2023-03-25T12:28:00.202Z,14.81
2023-03-25T12:30:32.308Z,14.80
2023-03-25T12:33:01.579Z,14.79
2023-03-25T12:35:32.663Z,14.77
2023-03-25T12:38:07.815Z,14.71
2023-03-25T12:40:56.063Z,14.57
2023-03-25T12:43:25.098Z,14.38
2023-03-25T12:46:14.503Z,14.16
2023-03-25T12:49:02.449Z,13.69
2023-03-25T12:51:35.024Z,13.25
2023-03-25T12:54:10.262Z,12.95
2023-03-25T12:56:49.103Z,12.82
2023-03-25T12:59:22.413Z,12.75
2023-03-25T13:01:51.563Z,12.82
2023-03-25T13:04:26.547Z,12.92
2023-03-25T13:07:04.982Z,13.02
2023-03-25T13:10:00.277Z,13.10
2023-03-25T13:12:32.636Z,13.13
2023-03-25T13:15:19.627Z,13.11
2023-03-25T13:17:58.470Z,13.14
2023-03-25T13:20:30.661Z,13.21
2023-03-25T13:23:04.522Z,13.31
2023-03-25T13:25:44.075Z,13.42
2023-03-25T13:28:17.329Z,13.60
2023-03-25T13:30:48.723Z,13.77
2023-03-25T13:33:20.383Z,13.89
2023-03-25T13:35:52.842Z,13.97
2023-03-25T13:38:26.762Z,14.02
2023-03-25T13:40:59.171Z,14.02
2023-03-25T13:43:43.442Z,13.96
2023-03-25T13:46:18.997Z,13.87
2023-03-25T13:48:51.922Z,13.79
2023-03-25T13:51:21.893Z,13.71
2023-03-25T13:53:52.515Z,13.62
2023-03-25T13:56:21.153Z,13.54
2023-03-25T13:58:50.284Z,13.51
2023-03-25T14:01:39.043Z,13.49
2023-03-25T14:04:11.824Z,13.48
2023-03-25T14:06:50.638Z,13.48
2023-03-25T14:09:23.108Z,13.47
2023-03-25T14:11:51.211Z,13.48
2023-03-25T14:14:22.899Z,13.49
2023-03-25T14:16:54.562Z,13.49
2023-03-25T14:19:28.762Z,13.49
2023-03-25T14:21:58.274Z,13.52
2023-03-25T14:24:32.085Z,13.55
2023-03-25T14:27:01.200Z,13.55
2023-03-25T14:29:33.307Z,13.54
2023-03-25T14:32:17.813Z,13.57
2023-03-25T14:34:50.330Z,13.60
2023-03-25T14:37:22.752Z,13.55
2023-03-25T14:39:52.454Z,13.53
2023-03-25T14:42:29.205Z,13.45
2023-03-25T14:45:17.045Z,13.40
2023-03-25T14:47:55.185Z,13.35
2023-03-25T14:50:24.019Z,13.32
2023-03-25T14:52:55.781Z,13.28
2023-03-25T14:55:36.854Z,13.20
2023-03-25T14:58:24.131Z,13.09
2023-03-25T15:00:59.332Z,13.00
2023-03-25T15:03:36.896Z,12.93
2023-03-25T15:06:07.364Z,12.87
2023-03-25T15:08:39.993Z,12.78
2023-03-25T15:11:15.159Z,12.70
2023-03-25T15:13:48.086Z,12.60
2023-03-25T15:16:27.671Z,12.50
2023-03-25T15:18:56.933Z,12.38
2023-03-25T15:21:26.512Z,12.28
2023-03-25T15:24:07.637Z,12.20
2023-03-25T15:26:40.948Z,12.20
2023-03-25T15:29:28.647Z,12.22
2023-03-25T15:32:23.931Z,12.27
2023-03-25T15:35:11.885Z,12.31
2023-03-25T15:37:59.646Z,12.34
2023-03-25T15:40:34.437Z,12.38
2023-03-25T15:43:36.107Z,12.39
2023-03-25T15:46:17.319Z,12.38
2023-03-25T15:48:56.666Z,12.34
2023-03-25T15:51:32.757Z,12.30
2023-03-25T15:54:02.280Z,12.21
2023-03-25T15:56:34.883Z,12.11
2023-03-25T15:59:06.405Z,12.07
2023-03-25T16:01:38.273Z,12.00
2023-03-25T16:04:19.038Z,11.95
2023-03-25T16:06:51.487Z,11.88
2023-03-25T16:09:30.031Z,11.79
2023-03-25T16:12:02.619Z,11.73
2023-03-25T16:14:32.880Z,11.65
2023-03-25T16:17:03.910Z,11.63
2023-03-25T16:19:53.535Z,11.59
2023-03-25T16:22:26.619Z,11.55
2023-03-25T16:24:57.421Z,11.49
2023-03-25T16:27:27.058Z,11.43
2023-03-25T16:29:56.164Z,11.35
2023-03-25T16:32:27.051Z,11.30
2023-03-25T16:34:56.613Z,11.26
2023-03-25T16:37:26.389Z,11.24
2023-03-25T16:39:56.512Z,11.19
2023-03-25T16:42:27.269Z,11.11
2023-03-25T16:44:56.718Z,11.05
2023-03-25T16:47:26.829Z,10.98
2023-03-25T16:49:56.968Z,10.92
2023-03-25T16:52:28.348Z,10.88
2023-03-25T16:54:57.434Z,10.83
2023-03-25T16:57:28.777Z,10.76
2023-03-25T17:00:03.482Z,10.73
2023-03-25T17:02:42.747Z,10.70
2023-03-25T17:05:17.271Z,10.69
2023-03-25T17:07:50.635Z,10.65
2023-03-25T17:10:22.069Z,10.61
2023-03-25T17:12:56.603Z,10.59
2023-03-25T17:15:26.716Z,10.60
2023-03-25T17:18:02.636Z,10.55
2023-03-25T17:20:35.440Z,10.52
2023-03-25T17:23:09.933Z,10.50
2023-03-25T17:25:51.063Z,10.50
2023-03-25T17:28:20.193Z,10.51
2023-03-25T17:30:49.351Z,10.51
2023-03-25T17:33:21.606Z,10.51
2023-03-25T17:35:55.589Z,10.54
2023-03-25T17:38:27.192Z,10.54
2023-03-25T17:41:04.161Z,10.53
2023-03-25T17:43:35.308Z,10.51
2023-03-25T17:46:06.584Z,10.51
2023-03-25T17:48:37.253Z,10.54
2023-03-25T17:51:06.291Z,10.53
2023-03-25T17:53:34.777Z,10.53
2023-03-25T17:56:04.016Z,10.49
2023-03-25T17:58:32.664Z,10.44
2023-03-25T18:01:01.704Z,10.42
2023-03-25T18:03:31.580Z,10.39
2023-03-25T18:06:01.270Z,10.32
2023-03-25T18:08:29.596Z,10.22
2023-03-25T18:10:59.094Z,10.17
2023-03-25T18:13:28.358Z,10.10
2023-03-25T18:15:56.774Z,10.04
2023-03-25T18:18:26.852Z,9.97
2023-03-25T18:21:04.174Z,9.92
2023-03-25T18:23:32.876Z,9.91
2023-03-25T18:26:01.963Z,9.88
2023-03-25T18:28:31.410Z,9.83
2023-03-25T18:31:00.147Z,9.78
2023-03-25T18:33:29.195Z,9.76
2023-03-25T18:36:00.239Z,9.73
2023-03-25T18:38:28.887Z,9.69
2023-03-25T18:40:57.711Z,9.66
2023-03-25T18:43:26.710Z,9.65
2023-03-25T18:45:55.952Z,9.65
2023-03-25T18:48:24.814Z,9.59
2023-03-25T18:50:54.962Z,9.58
2023-03-25T18:53:25.259Z,9.59
2023-03-25T18:55:55.119Z,9.54
2023-03-25T18:58:25.281Z,9.47
2023-03-25T19:00:54.338Z,9.41
2023-03-25T19:03:39.506Z,9.39
2023-03-25T19:06:10.383Z,9.36
2023-03-25T19:08:39.872Z,9.31
2023-03-25T19:11:20.129Z,9.26
2023-03-25T19:13:52.014Z,9.21
2023-03-25T19:16:22.021Z,9.20
2023-03-25T19:18:51.819Z,9.17
2023-03-25T19:21:20.669Z,9.15
2023-03-25T19:23:49.523Z,9.13
2023-03-25T19:26:18.411Z,9.12
2023-03-25T19:28:49.179Z,9.10
2023-03-25T19:31:19.394Z,9.06
2023-03-25T19:33:48.602Z,9.01
2023-03-25T19:36:19.562Z,9.00
2023-03-25T19:38:48.694Z,8.95
2023-03-25T19:41:17.805Z,8.90
2023-03-25T19:43:46.927Z,8.91
2023-03-25T19:46:16.261Z,8.93
2023-03-25T19:48:45.474Z,8.94
2023-03-25T19:51:14.318Z,8.95
2023-03-25T19:53:42.869Z,8.96
2023-03-25T19:56:14.742Z,8.95
2023-03-25T19:58:44.397Z,8.94
2023-03-25T20:01:13.373Z,8.95
2023-03-25T20:03:42.815Z,8.92
2023-03-25T20:06:11.848Z,8.87
2023-03-25T20:08:40.927Z,8.79
2023-03-25T20:11:10.546Z,8.76
2023-03-25T20:13:39.712Z,8.74
2023-03-25T20:16:09.028Z,8.74
2023-03-25T20:18:38.346Z,8.72
2023-03-25T20:21:08.457Z,8.76
2023-03-25T20:23:36.746Z,8.78
2023-03-25T20:26:05.910Z,8.81
2023-03-25T20:28:34.216Z,8.84
2023-03-25T20:31:15.538Z,8.89
2023-03-25T20:33:44.136Z,8.95
2023-03-25T20:36:12.665Z,8.99
2023-03-25T20:38:50.524Z,9.01
2023-03-25T20:41:25.033Z,9.01
2023-03-25T20:43:53.567Z,9.02
2023-03-25T20:46:25.476Z,9.04
2023-03-25T20:48:54.687Z,9.10
2023-03-25T20:51:24.289Z,9.11
2023-03-25T20:53:53.629Z,9.12
2023-03-25T20:56:22.066Z,9.15
2023-03-25T20:58:50.153Z,9.13
2023-03-25T21:01:18.646Z,9.12
2023-03-25T21:03:52.112Z,9.11
2023-03-25T21:06:24.503Z,9.08
2023-03-25T21:08:54.965Z,9.09
2023-03-25T21:11:24.164Z,9.11
2023-03-25T21:13:52.976Z,9.05
2023-03-25T21:16:21.870Z,9.01
2023-03-25T21:18:50.718Z,9.01
2023-03-25T21:21:19.920Z,9.03
2023-03-25T21:23:49.991Z,9.06
2023-03-25T21:26:18.480Z,9.06
2023-03-25T21:28:49.147Z,9.07
2023-03-25T21:31:22.063Z,9.11
2023-03-25T21:33:52.743Z,9.12
2023-03-25T21:36:22.823Z,9.12
2023-03-25T21:38:55.116Z,9.03
2023-03-25T21:41:27.236Z,9.02
2023-03-25T21:43:56.377Z,9.05
2023-03-25T21:46:28.390Z,9.11
2023-03-25T21:48:59.225Z,9.12
2023-03-25T21:51:31.190Z,9.13
2023-03-25T21:54:00.945Z,9.12
2023-03-25T21:56:31.662Z,9.16
2023-03-25T21:59:03.788Z,9.17
2023-03-25T22:01:32.939Z,9.18
2023-03-25T22:04:02.579Z,9.17
2023-03-25T22:06:35.717Z,9.16
2023-03-25T22:09:08.104Z,9.19
2023-03-25T22:11:37.863Z,9.22
2023-03-25T22:14:07.427Z,9.25
2023-03-25T22:16:36.778Z,9.24
2023-03-25T22:19:05.972Z,9.25
2023-03-25T22:21:37.549Z,9.23
2023-03-25T22:24:07.869Z,9.22
2023-03-25T22:26:43.215Z,9.19
2023-03-25T22:29:14.110Z,9.17
2023-03-25T22:31:43.461Z,9.15
2023-03-25T22:34:15.962Z,9.16
2023-03-25T22:36:50.933Z,9.17
2023-03-25T22:39:21.221Z,9.13
2023-03-25T22:41:50.166Z,9.07
2023-03-25T22:44:19.234Z,9.02
2023-03-25T22:46:49.448Z,8.97
2023-03-25T22:49:18.896Z,8.86
2023-03-25T22:51:48.262Z,8.79
2023-03-25T22:54:17.056Z,8.73
2023-03-25T22:56:45.993Z,8.67
2023-03-25T22:59:15.557Z,8.66
2023-03-25T23:01:45.307Z,8.61
2023-03-25T23:04:13.868Z,8.58
2023-03-25T23:06:42.787Z,8.57
2023-03-25T23:09:13.018Z,8.59
2023-03-25T23:11:41.470Z,8.54
2023-03-25T23:14:13.546Z,8.51
2023-03-25T23:16:42.313Z,8.53
2023-03-25T23:19:11.450Z,8.56
2023-03-25T23:21:40.864Z,8.51
2023-03-25T23:24:09.926Z,8.50
2023-03-25T23:26:40.954Z,8.57
2023-03-25T23:29:12.204Z,8.62
2023-03-25T23:31:42.576Z,8.64
2023-03-25T23:34:16.729Z,8.70
2023-03-25T23:36:47.414Z,8.71
2023-03-25T23:39:17.636Z,8.71
2023-03-25T23:41:46.548Z,8.71
2023-03-25T23:44:16.109Z,8.71
2023-03-25T23:46:45.177Z,8.69
2023-03-25T23:49:13.946Z,8.67
2023-03-25T23:51:42.848Z,8.70
2023-03-25T23:54:13.082Z,8.72
2023-03-25T23:56:42.749Z,8.71
2023-03-25T23:59:13.580Z,8.74
